createdAt,value
2023-12-01T00:09:20.461Z,22.91
2023-12-01T00:19:25.699Z,22.91
2023-12-01T00:29:31.272Z,22.87
2023-12-01T00:39:36.611Z,22.86
2023-12-01T00:49:41.495Z,22.83
2023-12-01T01:01:06.408Z,22.78
2023-12-01T01:11:10.655Z,22.77
2023-12-01T01:21:15.813Z,22.76
2023-12-01T01:31:21.010Z,22.73
2023-12-01T01:41:27.727Z,22.73
2023-12-01T01:51:32.906Z,22.71
2023-12-01T02:01:38.665Z,22.69
2023-12-01T02:11:43.966Z,22.68
2023-12-01T02:21:49.730Z,22.63
2023-12-01T02:31:55.090Z,22.63
2023-12-01T02:42:00.386Z,22.64
2023-12-01T02:52:05.584Z,22.64
2023-12-01T03:02:10.631Z,22.63
2023-12-01T03:12:16.113Z,22.61
2023-12-01T03:22:21.349Z,22.60
2023-12-01T03:32:26.425Z,22.58
2023-12-01T03:42:31.786Z,22.55
2023-12-01T03:52:37.228Z,22.54
2023-12-01T04:02:42.766Z,22.54
2023-12-01T04:12:48.289Z,22.53
2023-12-01T04:22:53.523Z,22.53
2023-12-01T04:32:59.134Z,22.52
2023-12-01T04:43:04.411Z,22.51
2023-12-01T04:53:09.435Z,22.49
2023-12-01T05:03:14.788Z,22.48
2023-12-01T05:13:20.299Z,22.48
2023-12-01T05:23:25.746Z,22.50
2023-12-01T05:33:31.082Z,22.49
2023-12-01T05:43:36.522Z,22.49
2023-12-01T05:53:41.712Z,22.48
2023-12-01T06:03:47.028Z,22.47
2023-12-01T06:13:52.183Z,22.48
2023-12-01T06:23:57.477Z,22.47
2023-12-01T06:34:02.773Z,22.45
2023-12-01T06:44:08.323Z,22.45
2023-12-01T06:54:13.748Z,22.43
2023-12-01T07:04:19.344Z,22.42
2023-12-01T07:14:25.009Z,22.44
2023-12-01T07:24:30.066Z,22.42
2023-12-01T07:34:35.354Z,22.46
2023-12-01T07:44:40.772Z,22.59
2023-12-01T07:54:46.423Z,22.58
2023-12-01T08:04:51.819Z,22.71
2023-12-01T08:14:57.339Z,22.80
2023-12-01T08:25:02.433Z,22.85
2023-12-01T08:35:08.548Z,22.82
2023-12-01T08:45:13.998Z,22.84
2023-12-01T08:55:19.137Z,22.89
2023-12-01T09:05:24.719Z,22.89
2023-12-01T09:15:30.211Z,23.76
2023-12-01T09:25:36.824Z,23.94
2023-12-01T09:35:55.483Z,23.33
2023-12-01T09:45:51.018Z,23.04
2023-12-01T09:55:56.091Z,22.91
2023-12-01T10:06:00.999Z,22.85
2023-12-01T10:16:06.465Z,22.74
2023-12-01T10:26:11.515Z,22.69
2023-12-01T10:36:16.692Z,22.65
2023-12-01T10:46:21.959Z,22.68
2023-12-01T10:56:27.518Z,22.66
2023-12-01T11:06:33.069Z,22.65
2023-12-01T11:16:38.290Z,22.62
2023-12-01T11:26:43.820Z,22.61
2023-12-01T11:36:48.934Z,22.56
2023-12-01T11:46:54.449Z,22.56
2023-12-01T11:56:59.732Z,22.56
2023-12-01T12:07:05.048Z,22.56
2023-12-01T12:17:10.492Z,22.56
2023-12-01T12:27:16.374Z,22.54
2023-12-01T12:37:21.925Z,22.51
2023-12-01T12:47:27.257Z,22.53
2023-12-01T12:57:32.702Z,22.51
2023-12-01T13:07:38.032Z,22.49
2023-12-01T13:17:43.378Z,22.47
2023-12-01T13:27:50.838Z,22.47
2023-12-01T13:37:56.286Z,22.49
2023-12-01T13:48:01.635Z,22.47
2023-12-01T13:58:07.073Z,22.45
2023-12-01T14:08:12.553Z,22.44
2023-12-01T14:18:17.930Z,22.40
2023-12-01T14:28:23.060Z,22.41
2023-12-01T14:38:28.313Z,22.38
2023-12-01T14:48:33.736Z,22.35
2023-12-01T14:58:40.191Z,22.39
2023-12-01T15:08:45.591Z,22.37
2023-12-01T15:18:51.057Z,22.36
2023-12-01T15:28:56.155Z,22.36
2023-12-01T15:39:01.616Z,22.33
2023-12-01T15:49:07.215Z,22.34
2023-12-01T15:59:12.521Z,22.33
2023-12-01T16:09:17.881Z,22.43
2023-12-01T16:19:23.599Z,22.56
2023-12-01T16:29:29.252Z,22.65
2023-12-01T16:39:34.913Z,22.65
2023-12-01T16:49:40.323Z,22.71
2023-12-01T16:59:45.742Z,22.81
2023-12-01T17:09:51.426Z,22.85
2023-12-01T17:19:56.604Z,22.89
2023-12-01T17:30:02.275Z,22.91
2023-12-01T17:40:07.457Z,22.90
2023-12-01T17:50:12.900Z,22.85
2023-12-01T18:00:18.636Z,22.94
2023-12-01T18:10:24.047Z,22.91
2023-12-01T18:20:29.583Z,22.93
2023-12-01T18:30:35.211Z,22.99
2023-12-01T18:40:40.367Z,23.00
2023-12-01T18:50:46.134Z,23.00
2023-12-01T19:00:51.934Z,23.09
2023-12-01T19:10:57.375Z,23.09
2023-12-01T19:21:02.824Z,23.09
2023-12-01T19:31:07.760Z,23.09
2023-12-01T19:41:13.231Z,23.12
2023-12-01T19:51:18.927Z,23.14
2023-12-01T20:01:24.525Z,23.15
2023-12-01T20:11:30.041Z,23.19
2023-12-01T20:21:35.500Z,23.21
2023-12-01T20:31:40.811Z,23.17
2023-12-01T20:41:46.247Z,23.25
2023-12-01T20:51:51.638Z,23.25
2023-12-01T21:01:56.633Z,23.28
2023-12-01T21:12:02.123Z,23.28
2023-12-01T21:22:07.607Z,23.17
2023-12-01T21:32:13.269Z,23.35
2023-12-01T21:42:18.630Z,23.30
2023-12-01T21:52:23.846Z,23.31
2023-12-01T22:02:29.047Z,23.28
2023-12-01T22:12:34.565Z,23.28
2023-12-01T22:22:39.895Z,23.44
2023-12-01T22:32:45.178Z,23.51
2023-12-01T22:42:50.840Z,23.29
2023-12-01T22:52:55.957Z,23.14
2023-12-01T23:03:01.957Z,23.07
2023-12-01T23:13:07.334Z,23.00
2023-12-01T23:23:12.562Z,23.04
2023-12-01T23:33:18.095Z,23.01
2023-12-01T23:43:24.412Z,22.98
2023-12-01T23:53:29.544Z,22.94
